Time;durP1;ratioP1;P1;durP2;ratioP2;P2;SDS_P1;SDS_P2;PMS_P1;PMS_P2;Temp;Humidity;BMP_temperature;BMP_pressure;BME280_temperature;BME280_humidity;BME280_pressure;Samples;Min_cycle;Max_cycle;Signal;HPM_P1;HPM_P2
2021/05/16 00:02:36;;;;;;;19.17;7.63;;;10.50;99.90;;;;;;10362783;28;20126;-61
2021/05/16 00:07:40;;;;;;;30.42;8.43;;;10.40;99.90;;;;;;10362317;28;20037;-61
2021/05/16 00:12:41;;;;;;;32.00;10.93;;;10.40;99.90;;;;;;10369077;28;20151;-61
2021/05/16 00:17:44;;;;;;;31.30;9.20;;;10.40;99.90;;;;;;10368601;28;20053;-61
2021/05/16 00:22:46;;;;;;;41.88;9.32;;;10.40;99.90;;;;;;10363096;28;20053;-61
2021/05/16 00:27:47;;;;;;;28.97;7.13;;;10.50;99.90;;;;;;10288620;28;20037;-62
2021/05/16 00:32:49;;;;;;;30.05;7.07;;;10.50;99.90;;;;;;10299741;28;21194;-61
2021/05/16 00:37:51;;;;;;;33.22;6.30;;;10.60;99.90;;;;;;10283035;28;21028;-61
2021/05/16 00:42:52;;;;;;;36.25;6.25;;;10.60;99.90;;;;;;10278868;28;20045;-61
2021/05/16 00:47:55;;;;;;;33.08;6.25;;;10.70;99.90;;;;;;10281415;28;20056;-61
2021/05/16 00:52:58;;;;;;;37.70;6.38;;;10.70;99.90;;;;;;10283358;28;20045;-62
2021/05/16 00:57:59;;;;;;;42.03;7.03;;;10.60;99.90;;;;;;10281241;28;20064;-61
2021/05/16 01:03:00;;;;;;;51.40;7.82;;;10.50;99.90;;;;;;10282874;28;20995;-61
2021/05/16 01:08:03;;;;;;;64.35;7.60;;;10.40;99.90;;;;;;10286224;28;20728;-61
2021/05/16 01:13:06;;;;;;;60.78;8.68;;;10.50;99.90;;;;;;10294527;28;20103;-61
2021/05/16 01:18:07;;;;;;;68.78;8.63;;;10.50;99.90;;;;;;10297041;28;20053;-61
2021/05/16 01:23:11;;;;;;;64.03;8.05;;;10.60;99.90;;;;;;10296717;28;20784;-61
2021/05/16 01:28:15;;;;;;;64.53;7.47;;;10.60;99.90;;;;;;10297363;28;20860;-60
2021/05/16 01:33:18;;;;;;;67.20;8.40;;;10.60;99.90;;;;;;10295900;28;20988;-62
2021/05/16 01:38:20;;;;;;;51.55;8.25;;;10.70;99.90;;;;;;10295844;28;20103;-59
2021/05/16 01:43:21;;;;;;;68.33;9.07;;;10.80;99.90;;;;;;10294560;28;20085;-61
2021/05/16 01:48:22;;;;;;;42.05;5.53;;;10.80;99.90;;;;;;10295605;28;21281;-61
2021/05/16 01:53:25;;;;;;;41.90;5.65;;;10.90;99.90;;;;;;10294684;28;20053;-61
2021/05/16 01:58:27;;;;;;;;;;;10.90;99.90;;;;;;10291056;28;21761;-61
2021/05/16 02:03:29;;;;;;;69.88;11.68;;;10.90;99.90;;;;;;10292082;28;20010;-61
2021/05/16 02:08:31;;;;;;;64.90;10.68;;;10.90;99.90;;;;;;10295688;28;20119;-62
2021/05/16 02:13:35;;;;;;;68.87;10.20;;;11.00;99.90;;;;;;10298115;28;20460;-61
2021/05/16 02:18:37;;;;;;;56.47;10.50;;;10.80;99.90;;;;;;10295236;28;20061;-61
2021/05/16 02:23:41;;;;;;;73.13;12.10;;;11.70;99.90;;;;;;10296141;28;20064;-61
2021/05/16 02:28:42;;;;;;;58.25;10.43;;;10.80;99.90;;;;;;10297256;28;20192;-62
2021/05/16 02:33:43;;;;;;;64.65;7.07;;;10.80;99.90;;;;;;10301584;28;21067;-61
2021/05/16 02:38:45;;;;;;;53.05;8.75;;;10.70;99.90;;;;;;10291566;28;20103;-62
2021/05/16 02:43:47;;;;;;;60.53;6.63;;;10.20;99.90;;;;;;10299354;28;20493;-61
2021/05/16 02:48:48;;;;;;;56.25;6.38;;;10.60;99.90;;;;;;10294541;28;20083;-62
2021/05/16 02:53:50;;;;;;;58.33;7.35;;;10.60;99.90;;;;;;10299586;28;20497;-62
2021/05/16 02:58:51;;;;;;;62.73;6.43;;;10.60;99.90;;;;;;10298430;28;20101;-61
2021/05/16 03:03:53;;;;;;;78.10;9.18;;;10.60;99.90;;;;;;10294978;28;20056;-62
2021/05/16 03:08:55;;;;;;;64.13;9.65;;;10.00;99.90;;;;;;10294546;28;20057;-61
2021/05/16 03:13:56;;;;;;;65.93;7.53;;;10.60;99.90;;;;;;10296925;28;20076;-62
2021/05/16 03:18:57;;;;;;;59.53;6.47;;;10.60;99.90;;;;;;10295484;28;20045;-61
2021/05/16 03:23:59;;;;;;;58.42;6.18;;;10.60;99.90;;;;;;10304776;28;20249;-61
2021/05/16 03:29:01;;;;;;;43.93;6.23;;;10.50;99.90;;;;;;10324630;28;20436;-61
2021/05/16 03:34:03;;;;;;;53.38;5.38;;;10.60;99.90;;;;;;10316451;28;20049;-61
2021/05/16 03:39:07;;;;;;;54.67;6.22;;;10.50;99.90;;;;;;10287890;28;20159;-62
2021/05/16 03:44:09;;;;;;;47.60;5.55;;;10.50;99.90;;;;;;10291583;28;20526;-61
2021/05/16 03:49:10;;;;;;;52.90;7.65;;;10.30;99.90;;;;;;10290778;28;20523;-62
2021/05/16 03:54:14;;;;;;;49.95;6.50;;;10.30;99.90;;;;;;10298546;28;20103;-61
2021/05/16 03:59:16;;;;;;;37.38;4.68;;;10.30;99.90;;;;;;10302318;28;20191;-62
2021/05/16 04:04:17;;;;;;;40.50;3.95;;;10.30;99.90;;;;;;10301448;28;20076;-61
2021/05/16 04:09:19;;;;;;;37.15;6.43;;;10.30;99.90;;;;;;10300650;28;20041;-61
2021/05/16 04:14:23;;;;;;;43.95;6.38;;;10.40;99.90;;;;;;10300752;28;20088;-62
2021/05/16 04:19:24;;;;;;;55.00;6.30;;;10.40;99.90;;;;;;10299037;28;20057;-62
2021/05/16 04:24:26;;;;;;;43.95;5.20;;;10.40;99.90;;;;;;10298670;28;20087;-62
2021/05/16 04:29:28;;;;;;;43.80;3.60;;;10.40;99.90;;;;;;10299782;28;21624;-61
2021/05/16 04:34:29;;;;;;;13.38;2.55;;;10.50;99.90;;;;;;10301298;28;20056;-62
2021/05/16 04:39:31;;;;;;;22.98;2.63;;;10.60;99.90;;;;;;10296088;28;20128;-61
2021/05/16 04:44:32;;;;;;;23.27;3.47;;;10.70;99.90;;;;;;10298398;28;22408;-61
2021/05/16 04:49:34;;;;;;;20.27;3.03;;;10.90;99.90;;;;;;10298374;28;20092;-61
2021/05/16 04:54:36;;;;;;;29.25;4.13;;;11.20;99.90;;;;;;10297904;28;20830;-63
2021/05/16 04:59:37;;;;;;;45.37;4.80;;;11.40;99.90;;;;;;10297511;28;20057;-62
2021/05/16 05:04:38;;;;;;;41.38;5.30;;;11.60;99.90;;;;;;10298353;28;20049;-60
2021/05/16 05:09:41;;;;;;;50.05;6.45;;;11.60;99.90;;;;;;10296447;28;20056;-63
2021/05/16 05:14:42;;;;;;;38.70;4.87;;;11.60;99.90;;;;;;10296306;28;20041;-62
2021/05/16 05:19:43;;;;;;;35.25;4.75;;;11.70;99.90;;;;;;10294910;28;20045;-62
2021/05/16 05:24:46;;;;;;;37.92;5.68;;;12.00;99.90;;;;;;10302667;28;20064;-62
2021/05/16 05:29:47;;;;;;;38.13;6.33;;;12.20;99.90;;;;;;10296776;28;20053;-62
2021/05/16 05:34:48;;;;;;;30.95;3.88;;;12.30;99.90;;;;;;10296820;28;20076;-61
2021/05/16 05:39:50;;;;;;;37.00;4.38;;;12.50;99.90;;;;;;10297297;28;20508;-60
2021/05/16 05:44:52;;;;;;;50.50;5.57;;;12.50;99.90;;;;;;10297463;28;20588;-61
2021/05/16 05:49:53;;;;;;;42.13;4.63;;;12.50;99.90;;;;;;10293470;28;20049;-61
2021/05/16 05:54:55;;;;;;;37.08;5.85;;;12.50;99.90;;;;;;10292231;28;20075;-60
2021/05/16 05:59:57;;;;;;;39.00;4.03;;;12.50;99.90;;;;;;10294370;28;21938;-61
2021/05/16 06:04:58;;;;;;;35.13;4.35;;;12.70;99.90;;;;;;10292119;28;20421;-60
2021/05/16 06:10:00;;;;;;;35.63;4.78;;;13.10;99.90;;;;;;10292824;28;20057;-61
2021/05/16 06:15:01;;;;;;;50.10;5.13;;;13.50;99.90;;;;;;10288449;28;20056;-63
2021/05/16 06:20:04;;;;;;;10.63;1.42;;;13.00;99.90;;;;;;10293037;28;21492;-64
2021/05/16 06:25:07;;;;;;;9.93;1.33;;;11.80;99.90;;;;;;10296827;28;21318;-65
2021/05/16 06:30:10;;;;;;;8.38;1.00;;;11.00;99.90;;;;;;10291219;28;20057;-64
2021/05/16 06:35:11;;;;;;;6.85;1.42;;;10.50;99.90;;;;;;10290209;28;20045;-63
2021/05/16 06:40:15;;;;;;;33.53;4.25;;;10.20;99.90;;;;;;10296286;28;20107;-63
2021/05/16 06:45:16;;;;;;;38.80;5.65;;;10.30;99.90;;;;;;10294313;28;20049;-64
2021/05/16 06:50:19;;;;;;;38.58;5.82;;;10.60;99.90;;;;;;10297752;28;20466;-64
2021/05/16 06:55:21;;;;;;;40.78;4.57;;;16.20;99.90;;;;;;10288992;28;20056;-64
2021/05/16 07:00:22;;;;;;;41.00;6.57;;;20.80;91.20;;;;;;10293164;28;20434;-62
2021/05/16 07:05:24;;;;;;;35.95;5.13;;;21.50;85.60;;;;;;10293306;28;20060;-62
2021/05/16 07:10:26;;;;;;;53.15;5.10;;;23.70;73.30;;;;;;10293773;28;21369;-63
2021/05/16 07:15:27;;;;;;;42.30;5.00;;;20.20;91.10;;;;;;10288859;28;20045;-63
2021/05/16 07:20:29;;;;;;;29.67;5.72;;;20.80;94.80;;;;;;10286737;28;20053;-63
2021/05/16 07:25:31;;;;;;;41.67;4.87;;;21.80;82.90;;;;;;10289808;28;20147;-63
2021/05/16 07:30:32;;;;;;;31.23;4.35;;;21.00;78.00;;;;;;10299843;28;20057;-62
2021/05/16 07:35:34;;;;;;;39.53;5.07;;;17.30;92.70;;;;;;10298107;28;20088;-62
2021/05/16 07:40:37;;;;;;;30.52;5.50;;;15.40;96.90;;;;;;10294406;28;20099;-63
2021/05/16 07:45:38;;;;;;;26.30;4.55;;;14.40;99.20;;;;;;10296088;28;20135;-62
2021/05/16 07:50:39;;;;;;;25.02;4.32;;;13.60;99.90;;;;;;10300377;28;20045;-62
2021/05/16 07:55:42;;;;;;;30.38;4.35;;;13.30;99.90;;;;;;10295328;28;20087;-63
2021/05/16 08:00:43;;;;;;;30.70;4.33;;;13.30;99.90;;;;;;10293625;28;20070;-62
2021/05/16 08:05:44;;;;;;;29.38;4.40;;;14.20;99.90;;;;;;10295284;28;20882;-63
2021/05/16 08:10:46;;;;;;;26.92;4.05;;;14.40;99.90;;;;;;10294176;28;21144;-62
2021/05/16 08:15:48;;;;;;;25.45;4.00;;;15.00;98.90;;;;;;10297923;28;20091;-63
2021/05/16 08:20:49;;;;;;;28.58;3.47;;;14.80;97.20;;;;;;10297530;28;20496;-62
2021/05/16 08:25:52;;;;;;;23.73;4.25;;;14.20;97.60;;;;;;10297057;28;20136;-62
2021/05/16 08:30:53;;;;;;;18.48;4.47;;;17.50;91.90;;;;;;10300234;28;20091;-62
2021/05/16 08:35:54;;;;;;;32.15;3.47;;;18.20;82.30;;;;;;10297294;28;21615;-63
2021/05/16 08:40:56;;;;;;;24.10;3.13;;;16.70;90.50;;;;;;10300302;28;21089;-62
2021/05/16 08:45:58;;;;;;;27.63;4.45;;;16.20;91.50;;;;;;10296749;28;20041;-63
2021/05/16 08:50:59;;;;;;;27.73;4.13;;;15.40;93.30;;;;;;10300387;28;20049;-61
2021/05/16 08:56:05;;;;;;;27.10;4.78;;;15.30;94.90;;;;;;10295959;28;21759;-63
2021/05/16 09:01:18;;;;;;;22.58;3.95;;;17.50;90.00;;;;;;10298582;28;20138;-65
2021/05/16 09:06:32;;;;;;;31.02;4.97;;;16.60;92.40;;;;;;10301336;28;20187;-65
2021/05/16 09:11:34;;;;;;;31.88;4.32;;;15.60;96.00;;;;;;10298311;28;20494;-66
2021/05/16 09:16:35;;;;;;;41.90;5.90;;;15.90;97.10;;;;;;10293640;28;20139;-65
2021/05/16 09:21:37;;;;;;;23.27;3.30;;;16.10;97.20;;;;;;10294732;28;20114;-64
2021/05/16 09:26:55;;;;;;;20.98;3.58;;;16.30;96.00;;;;;;10288636;28;20064;-64
2021/05/16 09:31:57;;;;;;;24.55;4.13;;;17.20;93.60;;;;;;10292136;28;20092;-64
2021/05/16 09:36:59;;;;;;;23.13;2.92;;;17.40;91.20;;;;;;10289100;28;20057;-64
2021/05/16 09:42:05;;;;;;;27.75;4.35;;;17.20;91.20;;;;;;10297169;28;20111;-64
2021/05/16 09:47:08;;;;;;;29.63;5.07;;;19.20;85.50;;;;;;10293236;28;20053;-68
2021/05/16 09:52:11;;;;;;;26.42;4.03;;;20.10;77.30;;;;;;10292668;28;21655;-64
2021/05/16 09:57:14;;;;;;;29.15;5.32;;;19.00;82.00;;;;;;10292933;28;20045;-65
2021/05/16 10:02:15;;;;;;;;;;;19.70;80.30;;;;;;10320835;28;20106;-66
2021/05/16 10:07:20;;;;;;;29.67;4.30;;;20.90;78.50;;;;;;10323275;28;20051;-65
2021/05/16 10:12:23;;;;;;;14.55;3.58;;;21.80;70.90;;;;;;10324778;28;20076;-65
2021/05/16 10:17:25;;;;;;;27.90;3.88;;;22.60;65.70;;;;;;10326220;28;20581;-65
2021/05/16 10:22:27;;;;;;;25.00;4.60;;;23.30;59.00;;;;;;10327233;28;20049;-65
2021/05/16 10:27:32;;;;;;;22.15;3.00;;;22.50;59.40;;;;;;10323652;28;20049;-64
2021/05/16 10:32:35;;;;;;;20.83;4.05;;;22.10;59.70;;;;;;10325877;28;20048;-65
2021/05/16 10:37:39;;;;;;;23.33;3.55;;;21.20;61.20;;;;;;10324622;28;20168;-66
2021/05/16 10:42:44;;;;;;;23.35;3.53;;;21.10;61.70;;;;;;10324962;28;20126;-64
2021/05/16 10:47:53;;;;;;;23.02;3.78;;;20.90;62.70;;;;;;10322970;28;20640;-64
2021/05/16 10:52:56;;;;;;;22.70;5.13;;;21.50;62.70;;;;;;10325699;28;20091;-65
2021/05/16 10:57:58;;;;;;;20.77;5.28;;;22.30;59.10;;;;;;10322902;28;20681;-65
2021/05/16 11:03:02;;;;;;;29.27;3.63;;;23.00;55.40;;;;;;10329606;28;20049;-65
2021/05/16 11:08:04;;;;;;;16.92;3.00;;;23.60;52.80;;;;;;10331372;28;20173;-65
2021/05/16 11:13:12;;;;;;;19.42;3.95;;;23.40;52.70;;;;;;10328770;28;20067;-65
2021/05/16 11:18:17;;;;;;;21.67;3.13;;;23.00;52.10;;;;;;10329414;28;21238;-64
2021/05/16 11:23:21;;;;;;;16.15;3.90;;;22.50;52.20;;;;;;10330956;28;20057;-63
2021/05/16 11:28:24;;;;;;;19.48;3.13;;;22.10;52.80;;;;;;10331586;28;20146;-65
2021/05/16 11:33:26;;;;;;;13.73;2.47;;;22.30;53.10;;;;;;10332733;28;21307;-65
2021/05/16 11:38:29;;;;;;;17.80;3.97;;;22.10;53.20;;;;;;10331175;28;20505;-60
2021/05/16 11:43:33;;;;;;;19.23;3.92;;;22.20;52.50;;;;;;10335537;28;20071;-65
2021/05/16 11:48:37;;;;;;;19.55;2.90;;;22.00;53.60;;;;;;10333413;28;20980;-63
2021/05/16 11:53:40;;;;;;;18.90;3.47;;;21.20;54.60;;;;;;10332625;28;20057;-63
2021/05/16 11:58:48;;;;;;;26.15;4.72;;;20.50;55.40;;;;;;10331064;28;20072;-61
2021/05/16 12:03:58;;;;;;;30.00;3.20;;;19.90;58.40;;;;;;10327634;28;20416;-62
2021/05/16 12:09:06;;;;;;;8.40;1.73;;;19.40;60.30;;;;;;10332292;28;20045;-61
2021/05/16 12:14:11;;;;;;;5.68;1.38;;;18.60;61.20;;;;;;10325858;28;20988;-63
2021/05/16 12:19:12;;;;;;;5.10;1.38;;;17.70;63.70;;;;;;10327156;28;20053;-64
2021/05/16 12:24:14;;;;;;;4.43;1.15;;;17.60;70.80;;;;;;10325813;28;20049;-64
2021/05/16 12:29:18;;;;;;;6.22;1.45;;;19.10;66.60;;;;;;10327225;28;20709;-64
2021/05/16 12:34:24;;;;;;;9.32;2.53;;;19.90;63.70;;;;;;10325716;28;20151;-63
2021/05/16 12:39:39;;;;;;;6.00;1.67;;;20.40;62.00;;;;;;10326028;28;20906;-62
2021/05/16 12:44:41;;;;;;;8.48;1.75;;;21.00;60.10;;;;;;10322995;28;20099;-63
2021/05/16 12:49:42;;;;;;;5.25;1.55;;;21.10;59.40;;;;;;10323579;28;20076;-62
2021/05/16 12:54:43;;;;;;;8.63;1.30;;;20.90;57.00;;;;;;10323833;28;20062;-63
2021/05/16 12:59:46;;;;;;;3.73;0.80;;;20.30;55.40;;;;;;10298633;28;779916;-63
2021/05/16 13:04:51;;;;;;;4.43;1.13;;;20.30;53.20;;;;;;10324482;28;20525;-62
2021/05/16 13:09:53;;;;;;;8.48;1.13;;;19.80;54.60;;;;;;10324199;28;20087;-63
2021/05/16 13:14:55;;;;;;;7.33;1.23;;;19.30;55.40;;;;;;10325701;28;20052;-63
2021/05/16 13:19:56;;;;;;;;;;;19.50;56.50;;;;;;10326890;28;20090;-62
2021/05/16 13:24:58;;;;;;;7.15;2.20;;;20.30;53.90;;;;;;10326501;28;19935;-61
2021/05/16 13:30:05;;;;;;;4.43;1.40;;;20.80;51.30;;;;;;10330179;28;20098;-61
2021/05/16 13:35:07;;;;;;;10.88;1.98;;;21.60;49.00;;;;;;10332757;28;20099;-62
2021/05/16 13:40:11;;;;;;;5.90;1.55;;;22.10;46.60;;;;;;10334713;28;20757;-62
2021/05/16 13:45:14;;;;;;;5.45;1.42;;;22.40;45.80;;;;;;10332469;28;20053;-62
2021/05/16 13:50:16;;;;;;;6.80;1.20;;;22.70;43.70;;;;;;10327663;28;20085;-63
2021/05/16 13:55:18;;;;;;;3.60;1.40;;;22.40;43.30;;;;;;10327944;28;20056;-62
2021/05/16 14:00:20;;;;;;;;;;;22.40;42.70;;;;;;10329584;28;20623;-62
2021/05/16 14:05:21;;;;;;;;;;;22.50;42.10;;;;;;10331393;28;20590;-62
2021/05/16 14:10:23;;;;;;;1.95;0.70;;;22.60;42.10;;;;;;10329233;28;19928;-63
2021/05/16 14:15:25;;;;;;;4.28;1.20;;;22.40;42.00;;;;;;10329839;28;20122;-62
2021/05/16 14:20:26;;;;;;;5.00;1.20;;;22.20;41.90;;;;;;10325499;28;20940;-62
2021/05/16 14:25:28;;;;;;;6.30;1.70;;;22.10;42.80;;;;;;10328185;28;20107;-63
2021/05/16 14:30:30;;;;;;;1.92;0.70;;;21.90;43.60;;;;;;10324980;28;20539;-62
2021/05/16 14:35:31;;;;;;;3.80;0.90;;;23.30;44.40;;;;;;10326283;28;20724;-63
2021/05/16 14:40:32;;;;;;;5.30;0.85;;;21.90;42.90;;;;;;10326491;28;20045;-60
2021/05/16 14:45:34;;;;;;;6.18;1.05;;;21.80;43.80;;;;;;10329642;28;20501;-62
2021/05/16 14:50:43;;;;;;;5.57;1.27;;;21.80;44.80;;;;;;10329255;28;20045;-60
2021/05/16 14:55:45;;;;;;;8.73;1.45;;;21.60;44.30;;;;;;10325361;28;20049;-61
2021/05/16 15:00:47;;;;;;;4.80;1.08;;;21.30;44.90;;;;;;10327639;28;20063;-59
2021/05/16 15:05:48;;;;;;;2.92;0.98;;;21.10;46.00;;;;;;10328613;28;21382;-60
2021/05/16 15:10:50;;;;;;;4.77;0.80;;;21.10;46.30;;;;;;10326347;28;20057;-59
2021/05/16 15:15:52;;;;;;;5.17;1.90;;;20.90;46.20;;;;;;10324755;28;20557;-60
2021/05/16 15:20:53;;;;;;;4.78;1.08;;;21.00;46.50;;;;;;10327225;28;20061;-60
2021/05/16 15:25:55;;;;;;;6.28;1.05;;;20.90;46.50;;;;;;10325130;28;20103;-59
2021/05/16 15:30:58;;;;;;;3.93;1.10;;;21.00;46.80;;;;;;10328523;28;20063;-60
2021/05/16 15:36:00;;;;;;;3.15;1.15;;;20.90;46.80;;;;;;10328798;28;20490;-59
2021/05/16 15:41:03;;;;;;;4.05;1.17;;;20.40;46.70;;;;;;10326320;28;20142;-58
2021/05/16 15:46:06;;;;;;;9.55;1.13;;;20.30;46.70;;;;;;10328765;28;20052;-60
2021/05/16 15:51:07;;;;;;;5.18;0.90;;;20.00;47.40;;;;;;10334342;28;20167;-59
2021/05/16 15:56:09;;;;;;;5.17;1.83;;;19.90;47.90;;;;;;10335530;28;20494;-59
2021/05/16 16:01:12;;;;;;;3.75;1.00;;;19.70;47.50;;;;;;10331945;28;20057;-57
2021/05/16 16:06:14;;;;;;;4.22;1.10;;;19.70;47.50;;;;;;10332326;28;20057;-58
2021/05/16 16:11:15;;;;;;;5.27;1.00;;;19.50;47.40;;;;;;10333329;28;20049;-59
2021/05/16 16:16:18;;;;;;;3.95;0.80;;;19.30;48.50;;;;;;10330130;28;21266;-58
2021/05/16 16:21:19;;;;;;;;;;;19.10;48.00;;;;;;10331052;28;20152;-59
2021/05/16 16:26:20;;;;;;;4.60;0.95;;;18.90;47.20;;;;;;10327299;28;21118;-60
2021/05/16 16:31:22;;;;;;;6.30;1.20;;;18.50;49.30;;;;;;10332504;28;20694;-59
2021/05/16 16:36:24;;;;;;;8.55;1.45;;;18.10;50.80;;;;;;10332658;28;20056;-57
2021/05/16 16:41:25;;;;;;;5.57;1.80;;;17.80;51.70;;;;;;10331565;28;20080;-59
2021/05/16 16:46:27;;;;;;;5.63;1.42;;;17.60;53.20;;;;;;10333521;28;20416;-59
2021/05/16 16:51:29;;;;;;;;;;;17.40;53.80;;;;;;10333136;28;20061;-59
2021/05/16 16:56:30;;;;;;;9.43;2.63;;;17.20;55.20;;;;;;10330448;28;19928;-60
2021/05/16 17:01:33;;;;;;;6.90;1.10;;;17.00;54.60;;;;;;10329403;28;20068;-61
2021/05/16 17:06:34;;;;;;;9.95;1.65;;;16.80;55.90;;;;;;10332813;28;20099;-62
2021/05/16 17:11:35;;;;;;;6.82;1.27;;;17.40;56.60;;;;;;10330094;28;20099;-58
2021/05/16 17:16:43;;;;;;;7.10;1.25;;;16.80;56.00;;;;;;10328475;28;20131;-58
2021/05/16 17:21:44;;;;;;;11.00;2.20;;;16.70;56.70;;;;;;10332050;28;20761;-60
2021/05/16 17:26:46;;;;;;;7.32;1.20;;;16.40;57.80;;;;;;10329313;28;21220;-60
2021/05/16 17:31:49;;;;;;;6.70;0.83;;;16.10;58.10;;;;;;10331912;28;20084;-58
2021/05/16 17:36:51;;;;;;;5.00;1.20;;;15.90;58.00;;;;;;10331270;28;20057;-60
2021/05/16 17:41:53;;;;;;;11.53;1.40;;;15.60;59.50;;;;;;10328281;28;20083;-60
2021/05/16 17:46:55;;;;;;;;;;;15.50;60.60;;;;;;10330296;28;20184;-60
2021/05/16 17:51:57;;;;;;;7.85;1.25;;;15.30;62.50;;;;;;10329801;28;20462;-60
2021/05/16 17:56:58;;;;;;;7.88;2.15;;;15.00;65.00;;;;;;10329507;28;20136;-58
2021/05/16 18:02:01;;;;;;;10.25;1.73;;;14.70;67.40;;;;;;10327833;28;20108;-59
2021/05/16 18:07:03;;;;;;;7.90;1.38;;;14.30;68.80;;;;;;10327211;28;20053;-58
2021/05/16 18:12:05;;;;;;;;;;;14.80;71.10;;;;;;10317636;28;20057;-58
2021/05/16 18:17:07;;;;;;;6.72;0.70;;;14.00;72.60;;;;;;10322493;28;19929;-58
2021/05/16 18:22:09;;;;;;;4.85;1.05;;;13.80;72.50;;;;;;10322171;28;20049;-58
2021/05/16 18:27:10;;;;;;;9.43;0.90;;;13.60;72.30;;;;;;10321460;28;20088;-57
2021/05/16 18:32:13;;;;;;;6.13;1.45;;;13.50;73.80;;;;;;10322760;28;20856;-59
2021/05/16 18:37:14;;;;;;;7.50;1.35;;;13.40;75.00;;;;;;10320820;28;20795;-60
2021/05/16 18:42:17;;;;;;;12.73;2.10;;;13.40;76.10;;;;;;10322048;28;20410;-60
2021/05/16 18:47:19;;;;;;;7.95;1.27;;;13.30;78.00;;;;;;10323704;28;20053;-61
2021/05/16 18:52:20;;;;;;;14.75;1.98;;;13.10;79.40;;;;;;10326800;28;20049;-60
2021/05/16 18:57:22;;;;;;;7.90;2.28;;;12.90;81.40;;;;;;10328868;28;20200;-61
2021/05/16 19:02:24;;;;;;;12.05;1.65;;;12.80;83.70;;;;;;10327685;28;20154;-61
2021/05/16 19:07:25;;;;;;;23.97;4.20;;;12.70;84.50;;;;;;10328629;28;20056;-62
2021/05/16 19:12:27;;;;;;;15.57;1.50;;;12.50;84.80;;;;;;10326790;28;20135;-59
2021/05/16 19:17:29;;;;;;;13.80;2.33;;;12.40;85.60;;;;;;10328732;28;20693;-62
2021/05/16 19:22:31;;;;;;;11.27;1.83;;;12.20;86.50;;;;;;10330850;28;20049;-61
2021/05/16 19:27:33;;;;;;;18.20;2.20;;;12.00;88.00;;;;;;10336376;28;20513;-62
2021/05/16 19:32:35;;;;;;;10.07;1.70;;;12.00;88.80;;;;;;10338044;28;20320;-62
2021/05/16 19:37:38;;;;;;;9.65;2.03;;;11.90;89.90;;;;;;10336222;28;20785;-60
2021/05/16 19:42:40;;;;;;;13.02;1.80;;;11.90;89.50;;;;;;10333609;28;20398;-61
2021/05/16 19:47:43;;;;;;;10.27;1.60;;;11.90;89.50;;;;;;10335430;28;20106;-58
2021/05/16 19:52:45;;;;;;;8.90;2.20;;;11.90;89.80;;;;;;10336024;28;20903;-61
2021/05/16 19:57:46;;;;;;;16.67;2.23;;;11.90;89.50;;;;;;10335992;28;20053;-61
2021/05/16 20:02:49;;;;;;;18.58;2.67;;;11.90;90.00;;;;;;10334850;28;21488;-59
2021/05/16 20:07:51;;;;;;;12.18;2.42;;;12.00;90.10;;;;;;10333746;28;20057;-62
2021/05/16 20:12:52;;;;;;;8.38;1.90;;;12.00;90.60;;;;;;10334856;28;20049;-61
2021/05/16 20:17:54;;;;;;;10.18;1.48;;;12.00;90.80;;;;;;10335385;28;20166;-61
2021/05/16 20:22:57;;;;;;;19.27;2.80;;;12.00;91.50;;;;;;10335113;28;20887;-59
2021/05/16 20:27:59;;;;;;;12.70;2.28;;;11.80;91.80;;;;;;10334048;28;20475;-59
2021/05/16 20:33:05;;;;;;;13.32;2.33;;;11.70;92.20;;;;;;10332951;28;20049;-58
2021/05/16 20:38:07;;;;;;;7.93;2.28;;;11.60;92.50;;;;;;10335727;28;20053;-61
2021/05/16 20:43:10;;;;;;;9.75;1.98;;;11.50;92.90;;;;;;10332628;28;20106;-59
2021/05/16 20:48:14;;;;;;;16.00;2.75;;;11.30;93.20;;;;;;10331501;28;20148;-61
2021/05/16 20:53:17;;;;;;;18.55;2.45;;;11.30;93.70;;;;;;10333766;28;20056;-58
2021/05/16 20:58:18;;;;;;;;;;;11.40;94.00;;;;;;10331875;28;21835;-59
2021/05/16 21:03:21;;;;;;;12.98;2.00;;;11.60;93.70;;;;;;10331574;28;19933;-58
2021/05/16 21:08:22;;;;;;;10.77;1.77;;;11.80;93.50;;;;;;10333877;28;20627;-61
2021/05/16 21:13:24;;;;;;;13.02;2.30;;;12.00;93.70;;;;;;10330243;28;20088;-61
2021/05/16 21:18:27;;;;;;;12.52;2.17;;;12.10;93.70;;;;;;10328344;28;20049;-61
2021/05/16 21:23:28;;;;;;;10.33;1.57;;;12.20;94.00;;;;;;10331552;28;20201;-59
2021/05/16 21:28:29;;;;;;;7.20;2.00;;;12.30;94.80;;;;;;10334167;28;20064;-61
2021/05/16 21:33:32;;;;;;;16.52;2.50;;;12.30;95.10;;;;;;10334742;28;20079;-60
2021/05/16 21:38:33;;;;;;;15.40;3.10;;;12.20;95.50;;;;;;10333500;28;20489;-61
2021/05/16 21:43:35;;;;;;;10.40;2.55;;;12.30;95.60;;;;;;10328286;28;20162;-59
2021/05/16 21:48:37;;;;;;;9.68;2.30;;;12.30;96.10;;;;;;10324500;28;20177;-60
2021/05/16 21:53:38;;;;;;;10.80;2.10;;;12.30;96.40;;;;;;10332403;28;20107;-61
2021/05/16 21:58:40;;;;;;;34.95;3.05;;;12.40;97.30;;;;;;10331889;28;22166;-60
2021/05/16 22:03:42;;;;;;;22.35;2.97;;;12.30;98.10;;;;;;10329255;28;20654;-62
2021/05/16 22:08:43;;;;;;;19.57;3.87;;;11.90;99.90;;;;;;10329180;28;20094;-63
2021/05/16 22:13:44;;;;;;;12.50;2.95;;;11.40;99.90;;;;;;10332009;28;21326;-62
2021/05/16 22:18:47;;;;;;;18.25;3.22;;;11.10;99.90;;;;;;10331110;28;20134;-62
2021/05/16 22:23:48;;;;;;;13.30;3.30;;;11.00;99.90;;;;;;10328774;28;20744;-62
2021/05/16 22:28:51;;;;;;;15.77;4.07;;;10.80;99.90;;;;;;10332748;28;21081;-62
2021/05/16 22:33:53;;;;;;;16.33;3.88;;;10.80;99.90;;;;;;10331916;28;20060;-63
2021/05/16 22:38:55;;;;;;;17.47;4.83;;;10.80;99.90;;;;;;10331715;28;20119;-61
2021/05/16 22:43:56;;;;;;;18.77;5.82;;;10.80;99.90;;;;;;10330031;28;20053;-62
2021/05/16 22:48:58;;;;;;;26.75;5.68;;;10.80;99.90;;;;;;10329862;28;20080;-62
2021/05/16 22:54:00;;;;;;;29.53;6.20;;;10.90;99.90;;;;;;10326888;28;20465;-62
2021/05/16 22:59:01;;;;;;;18.67;7.03;;;10.90;99.90;;;;;;10334084;28;21753;-63
2021/05/16 23:04:04;;;;;;;25.58;7.20;;;10.90;99.90;;;;;;10336203;28;20674;-63
2021/05/16 23:09:07;;;;;;;17.63;7.43;;;10.90;99.90;;;;;;10337183;28;20096;-62
2021/05/16 23:14:09;;;;;;;17.48;7.13;;;10.80;99.90;;;;;;10334814;28;20057;-62
2021/05/16 23:19:13;;;;;;;24.65;7.63;;;10.80;99.90;;;;;;10339218;28;20052;-62
2021/05/16 23:24:15;;;;;;;22.02;9.35;;;10.70;99.90;;;;;;10338956;28;20072;-62
2021/05/16 23:29:17;;;;;;;27.08;10.65;;;10.70;99.90;;;;;;10338662;28;20049;-63
2021/05/16 23:34:20;;;;;;;35.50;11.90;;;10.70;99.90;;;;;;10336864;28;20056;-63
2021/05/16 23:39:21;;;;;;;25.65;11.43;;;10.70;99.90;;;;;;10335662;28;21278;-63
2021/05/16 23:44:23;;;;;;;20.50;9.93;;;10.70;99.90;;;;;;10333183;28;20064;-63
2021/05/16 23:49:26;;;;;;;23.45;10.70;;;10.70;99.90;;;;;;10334724;28;20209;-64
2021/05/16 23:54:27;;;;;;;27.27;10.82;;;10.70;99.90;;;;;;10330882;28;20053;-63
2021/05/16 23:59:29;;;;;;;29.13;11.35;;;10.60;99.90;;;;;;10330505;28;20157;-63
